G. O. Sars — LMEL — position and weather

sailwx.info

Track history (hours):
 
Tides and Currents Weather Stations Pressure Air Temp Water Temp Dewpoint Dewpoint Depression Visibility Wind Speed Wind Dir Waves Ship Positions

Oceanographic research ship G. O. Sars (Norway)

Detailed information on ship capabilities available from University of Delaware's Ocean Information Center and ARCUS's ALIAS (Arctic Logistics Information and Support) project.

Last reported at 2018-Jun-22 18:30 UTC. Time now 2018-Jun-22 18:44 UTC.
Position N 60°08' E 005°38'.

Type: Other ship. MMSI: 257105000.

Date/timePositionNaut miles runAvg speedWind from/ knotsBaromVisibWave heightAir tempDewpointWater temp
2018-Jun-22 18:30N 60°08' E 005°38'1 2.9
2018-Jun-22 18:00N 60°08' E 005°35'1 2.1
2018-Jun-22 17:29N 60°07' E 005°34'1 1.6
2018-Jun-22 17:00N 60°07' E 005°35'2 3.7
2018-Jun-22 16:29N 60°08' E 005°39'0 0.0
2018-Jun-22 16:00N 60°08' E 005°39'0 0.1
2018-Jun-22 15:29N 60°08' E 005°38'0 0.0
2018-Jun-22 15:00N 60°08' E 005°38'0 0.1
2018-Jun-22 14:30N 60°08' E 005°39'0 0.0
2018-Jun-22 14:00N 60°08' E 005°39'0 0.6
2018-Jun-22 13:30N 60°08' E 005°39'5 9.1
2018-Jun-22 13:00N 60°10' E 005°31'1 1.5
2018-Jun-22 12:30N 60°10' E 005°29'4 8.8
2018-Jun-22 12:00N 60°06' E 005°28'1 2.3
2018-Jun-22 11:30N 60°06' E 005°30'1 1.3
2018-Jun-22 11:00N 60°06' E 005°30'1 1.7
2018-Jun-22 10:30N 60°07' E 005°31'1 2.0
2018-Jun-22 10:00N 60°07' E 005°33'1 2.1
2018-Jun-22 09:30N 60°07' E 005°35'1 2.3
2018-Jun-22 09:00N 60°07' E 005°38'1 2.5
2018-Jun-22 08:30N 60°08' E 005°40'2 4.3
2018-Jun-22 08:00N 60°06' E 005°37'1 1.3
2018-Jun-22 07:31N 60°06' E 005°37'4 8.0
2018-Jun-22 06:58N 60°06' E 005°29'0 0.3
2018-Jun-22 06:30N 60°07' E 005°29'1 2.1
2018-Jun-22 06:00N 60°07' E 005°31'1 2.2
2018-Jun-22 05:30N 60°07' E 005°33'1 2.3
2018-Jun-22 05:00N 60°08' E 005°35'1 2.5
2018-Jun-22 04:30N 60°08' E 005°37'2 3.3
2018-Jun-22 04:00N 60°09' E 005°40'1 1.8
2018-Jun-22 03:30N 60°09' E 005°38'2 3.7
2018-Jun-22 03:00N 60°08' E 005°35'2 4.4
2018-Jun-22 02:30N 60°06' E 005°32'1 2.6
2018-Jun-22 02:00N 60°06' E 005°29'1 1.9
2018-Jun-22 01:29N 60°06' E 005°27'1 1.9
2018-Jun-22 01:00N 60°06' E 005°26'1 2.6
2018-Jun-22 00:30N 60°06' E 005°28'1 2.6
2018-Jun-22 00:00N 60°07' E 005°31'1 1.3
2018-Jun-21 23:29N 60°07' E 005°32'1 1.9
2018-Jun-21 23:00N 60°06' E 005°30'1 2.6
2018-Jun-21 22:29N 60°06' E 005°28'1 1.4
2018-Jun-21 22:00N 60°06' E 005°29'1 2.3
2018-Jun-21 21:28N 60°07' E 005°31'2 3.2
2018-Jun-21 21:00N 60°07' E 005°34'1 2.5
2018-Jun-21 20:30N 60°08' E 005°36'2 3.2
2018-Jun-21 20:00N 60°09' E 005°39'2 3.4
2018-Jun-21 19:30N 60°08' E 005°36'2 4.1
2018-Jun-21 19:00N 60°07' E 005°32'2 4.0
2018-Jun-21 18:30N 60°07' E 005°28'1 2.7
2018-Jun-21 18:00N 60°07' E 005°31'1 2.0
2018-Jun-21 17:30N 60°07' E 005°33'1 2.3
2018-Jun-21 17:00N 60°08' E 005°35'1 2.5
2018-Jun-21 16:30N 60°08' E 005°37'2 3.0
2018-Jun-21 15:59N 60°09' E 005°40'2 3.4
2018-Jun-21 15:30N 60°08' E 005°37'1 3.0
2018-Jun-21 15:00N 60°07' E 005°35'3 6.2
2018-Jun-21 14:29N 60°06' E 005°29'0 0.1
2018-Jun-21 14:00N 60°06' E 005°29'1 2.6
2018-Jun-21 13:30N 60°07' E 005°31'1 1.4
2018-Jun-21 13:00N 60°07' E 005°32'1 2.0
2018-Jun-21 12:29N 60°08' E 005°34'1 1.8
2018-Jun-21 12:00N 60°08' E 005°35'1 2.3
2018-Jun-21 11:30N 60°08' E 005°37'1 2.0
2018-Jun-21 11:00N 60°09' E 005°39'1 1.9
2018-Jun-21 10:30N 60°08' E 005°37'4 8.5
2018-Jun-21 10:00N 60°07' E 005°29'0 1.0
2018-Jun-21 09:30N 60°07' E 005°28'5 9.2
2018-Jun-21 09:00N 60°08' E 005°19'510.6
2018-Jun-21 08:30N 60°10' E 005°10'3 5.3
2018-Jun-21 07:59N 60°09' E 005°05'3 6.1
2018-Jun-21 07:30N 60°11' E 005°10'3 6.8
2018-Jun-21 07:00N 60°09' E 005°04'510.1
2018-Jun-21 06:30N 60°08' E 004°54'511.0
2018-Jun-21 06:00N 60°07' E 004°43'611.2
2018-Jun-21 05:30N 60°06' E 004°32'  
Track history (hours):
 
Tides and Currents Weather Stations Pressure Air Temp Water Temp Dewpoint Dewpoint Depression Visibility Wind Speed Wind Dir Waves Ship Positions

Oceanographic research ship G. O. Sars (Norway)

Detailed information on ship capabilities available from University of Delaware's Ocean Information Center and ARCUS's ALIAS (Arctic Logistics Information and Support) project.

Last reported at 2018-Jun-22 18:30 UTC. Time now 2018-Jun-22 18:44 UTC.
Position N 60°08' E 005°38'.

Type: Other ship. MMSI: 257105000.

Date/timePositionNaut miles runAvg speedWind from/ knotsBaromVisibWave heightAir tempDewpointWater temp
2018-Jun-22 18:30N 60°08' E 005°38'1 2.9
2018-Jun-22 18:00N 60°08' E 005°35'1 2.1
2018-Jun-22 17:29N 60°07' E 005°34'1 1.6
2018-Jun-22 17:00N 60°07' E 005°35'2 3.7
2018-Jun-22 16:29N 60°08' E 005°39'0 0.0
2018-Jun-22 16:00N 60°08' E 005°39'0 0.1
2018-Jun-22 15:29N 60°08' E 005°38'0 0.0
2018-Jun-22 15:00N 60°08' E 005°38'0 0.1
2018-Jun-22 14:30N 60°08' E 005°39'0 0.0
2018-Jun-22 14:00N 60°08' E 005°39'0 0.6
2018-Jun-22 13:30N 60°08' E 005°39'5 9.1
2018-Jun-22 13:00N 60°10' E 005°31'1 1.5
2018-Jun-22 12:30N 60°10' E 005°29'4 8.8
2018-Jun-22 12:00N 60°06' E 005°28'1 2.3
2018-Jun-22 11:30N 60°06' E 005°30'1 1.3
2018-Jun-22 11:00N 60°06' E 005°30'1 1.7
2018-Jun-22 10:30N 60°07' E 005°31'1 2.0
2018-Jun-22 10:00N 60°07' E 005°33'1 2.1
2018-Jun-22 09:30N 60°07' E 005°35'1 2.3
2018-Jun-22 09:00N 60°07' E 005°38'1 2.5
2018-Jun-22 08:30N 60°08' E 005°40'2 4.3
2018-Jun-22 08:00N 60°06' E 005°37'1 1.3
2018-Jun-22 07:31N 60°06' E 005°37'4 8.0
2018-Jun-22 06:58N 60°06' E 005°29'0 0.3
2018-Jun-22 06:30N 60°07' E 005°29'1 2.1
2018-Jun-22 06:00N 60°07' E 005°31'1 2.2
2018-Jun-22 05:30N 60°07' E 005°33'1 2.3
2018-Jun-22 05:00N 60°08' E 005°35'1 2.5
2018-Jun-22 04:30N 60°08' E 005°37'2 3.3
2018-Jun-22 04:00N 60°09' E 005°40'1 1.8
2018-Jun-22 03:30N 60°09' E 005°38'2 3.7
2018-Jun-22 03:00N 60°08' E 005°35'2 4.4
2018-Jun-22 02:30N 60°06' E 005°32'1 2.6
2018-Jun-22 02:00N 60°06' E 005°29'1 1.9
2018-Jun-22 01:29N 60°06' E 005°27'1 1.9
2018-Jun-22 01:00N 60°06' E 005°26'1 2.6
2018-Jun-22 00:30N 60°06' E 005°28'1 2.6
2018-Jun-22 00:00N 60°07' E 005°31'1 1.3
2018-Jun-21 23:29N 60°07' E 005°32'1 1.9
2018-Jun-21 23:00N 60°06' E 005°30'1 2.6
2018-Jun-21 22:29N 60°06' E 005°28'1 1.4
2018-Jun-21 22:00N 60°06' E 005°29'1 2.3
2018-Jun-21 21:28N 60°07' E 005°31'2 3.2
2018-Jun-21 21:00N 60°07' E 005°34'1 2.5
2018-Jun-21 20:30N 60°08' E 005°36'2 3.2
2018-Jun-21 20:00N 60°09' E 005°39'2 3.4
2018-Jun-21 19:30N 60°08' E 005°36'2 4.1
2018-Jun-21 19:00N 60°07' E 005°32'2 4.0
2018-Jun-21 18:30N 60°07' E 005°28'1 2.7
2018-Jun-21 18:00N 60°07' E 005°31'1 2.0
2018-Jun-21 17:30N 60°07' E 005°33'1 2.3
2018-Jun-21 17:00N 60°08' E 005°35'1 2.5
2018-Jun-21 16:30N 60°08' E 005°37'2 3.0
2018-Jun-21 15:59N 60°09' E 005°40'2 3.4
2018-Jun-21 15:30N 60°08' E 005°37'1 3.0
2018-Jun-21 15:00N 60°07' E 005°35'3 6.2
2018-Jun-21 14:29N 60°06' E 005°29'0 0.1
2018-Jun-21 14:00N 60°06' E 005°29'1 2.6
2018-Jun-21 13:30N 60°07' E 005°31'1 1.4
2018-Jun-21 13:00N 60°07' E 005°32'1 2.0
2018-Jun-21 12:29N 60°08' E 005°34'1 1.8
2018-Jun-21 12:00N 60°08' E 005°35'1 2.3
2018-Jun-21 11:30N 60°08' E 005°37'1 2.0
2018-Jun-21 11:00N 60°09' E 005°39'1 1.9
2018-Jun-21 10:30N 60°08' E 005°37'4 8.5
2018-Jun-21 10:00N 60°07' E 005°29'0 1.0
2018-Jun-21 09:30N 60°07' E 005°28'5 9.2
2018-Jun-21 09:00N 60°08' E 005°19'510.6
2018-Jun-21 08:30N 60°10' E 005°10'3 5.3
2018-Jun-21 07:59N 60°09' E 005°05'3 6.1
2018-Jun-21 07:30N 60°11' E 005°10'3 6.8
2018-Jun-21 07:00N 60°09' E 005°04'510.1
2018-Jun-21 06:30N 60°08' E 004°54'511.0
2018-Jun-21 06:00N 60°07' E 004°43'611.2
2018-Jun-21 05:30N 60°06' E 004°32'  

Dump ship's entire track history